Dades meteomassalio
Diari Summary for Octubre 2, 2017 Units:  English    Metric   Both
« Previous Day
Next Day »
Diari Semanal Mensual Anual Personalitzat
  Maxima: Minima: Mijana:
Temperatura: TemperatureC °F 14.4 °F 20.3 °F
Rosada: DewpointC °F 10.1 °F 13.8 °F
Humitat: Humidity % 49 % 67 %
Velocitat del vent: WindSpeedKMH mph 0.0 mph 8.9 mph
Racha vent: WindSpeedGustKMH mph - -
Vent:- - SSW
Pressio: PressurehPa in 1022.9 in -
Pluja: 0.0 in    
Historical Graphs
 
 
Tabular Data for Octubre 2, 2017
Time Temperature Dew Point Pressure Wind Wind Speed Wind Gust Humidity Rainfall Rate (Hourly) solar Conditions
TemperatureC °F DewpointC °F PressurehPa in Calm     Humidity % HourlyPrecipMM in SolarRadiationWatts/m^2 W/m2 Conditions
00:03 19.4 °F 14.5 °F 1024.9 in SSW 16.7 mph 16.7 mph 73 % 0.0 in 0.0 W/m2 CLR
00:08 18.9 °F 13.7 °F 1024.9 in SW 5.6 mph 5.6 mph 72 % 0.0 in 0.0 W/m2 CLR
00:13 18.9 °F 13.9 °F 1024.6 in SSW 5.6 mph 5.6 mph 73 % 0.0 in 0.0 W/m2 CLR
00:18 18.9 °F 13.9 °F 1024.6 in SW 7.4 mph 7.4 mph 73 % 0.0 in 0.0 W/m2 CLR
00:23 18.9 °F 13.9 °F 1024.9 in Calm     73 % 0.0 in 0.0 W/m2 CLR
00:28 18.9 °F 13.9 °F 1024.9 in SSW 9.3 mph 9.3 mph 73 % 0.0 in 0.0 W/m2 CLR
00:33 18.3 °F 13.4 °F 1024.9 in SSW 7.4 mph 7.4 mph 73 % 0.0 in 0.0 W/m2 CLR
00:38 18.3 °F 13.4 °F 1024.9 in SSW 5.6 mph 5.6 mph 73 % 0.0 in 0.0 W/m2 CLR
00:43 18.3 °F 13.4 °F 1024.6 in SSW 7.4 mph 7.4 mph 73 % 0.0 in 0.0 W/m2 CLR
00:48 18.3 °F 13.4 °F 1024.9 in SSW 5.6 mph 5.6 mph 73 % 0.0 in 0.0 W/m2 CLR
00:53 18.3 °F 13.6 °F 1024.9 in SSW 13.0 mph 13.0 mph 74 % 0.0 in 0.0 W/m2 CLR
00:58 18.3 °F 13.6 °F 1024.9 in South 5.6 mph 5.6 mph 74 % 0.0 in 0.0 W/m2 CLR
01:03 18.3 °F 13.6 °F 1024.9 in SSW 5.6 mph 5.6 mph 74 % 0.0 in 0.0 W/m2 CLR
01:08 17.8 °F 13.1 °F 1024.9 in SSW 7.4 mph 7.4 mph 74 % 0.0 in 0.0 W/m2 CLR
01:13 17.8 °F 13.1 °F 1024.9 in SSW 9.3 mph 9.3 mph 74 % 0.0 in 0.0 W/m2 CLR
01:18 17.8 °F 13.1 °F 1024.6 in SSW 13.0 mph 13.0 mph 74 % 0.0 in 0.0 W/m2 CLR
01:23 17.8 °F 13.1 °F 1024.6 in South 13.0 mph 13.0 mph 74 % 0.0 in 0.0 W/m2 CLR
01:28 17.8 °F 13.1 °F 1024.6 in SSW 13.0 mph 13.0 mph 74 % 0.0 in 0.0 W/m2 CLR
01:33 18.3 °F 13.6 °F 1024.6 in SSW 9.3 mph 9.3 mph 74 % 0.0 in 0.0 W/m2 CLR
01:38 18.3 °F 13.8 °F 1024.6 in SSW 11.3 mph 11.3 mph 75 % 0.0 in 0.0 W/m2 CLR
01:43 18.3 °F 13.8 °F 1024.6 in South 13.0 mph 13.0 mph 75 % 0.0 in 0.0 W/m2 CLR
01:48 18.3 °F 13.8 °F 1024.6 in South 14.8 mph 14.8 mph 75 % 0.0 in 0.0 W/m2 CLR
01:53 18.3 °F 13.8 °F 1024.6 in South 13.0 mph 13.0 mph 75 % 0.0 in 0.0 W/m2 CLR
01:58 18.3 °F 13.8 °F 1024.6 in South 4.8 mph 4.8 mph 75 % 0.0 in 0.0 W/m2 CLR
02:03 18.3 °F 13.8 °F 1024.6 in Calm     75 % 0.0 in 0.0 W/m2 CLR
02:08 17.8 °F 13.3 °F 1024.6 in SSW 9.3 mph 9.3 mph 75 % 0.0 in 0.0 W/m2 CLR
02:13 17.8 °F 13.3 °F 1024.6 in Calm     75 % 0.0 in 0.0 W/m2 CLR
02:18 17.2 °F 12.7 °F 1024.6 in SSE 5.6 mph 5.6 mph 75 % 0.0 in 0.0 W/m2 CLR
02:23 17.2 °F 12.7 °F 1024.6 in South 9.7 mph 9.7 mph 75 % 0.0 in 0.0 W/m2 CLR
02:28 17.2 °F 12.9 °F 1024.6 in South 7.4 mph 7.4 mph 76 % 0.0 in 0.0 W/m2 CLR
02:33 17.2 °F 12.9 °F 1024.6 in South 5.6 mph   76 % 0.0 in 0.0 W/m2 CLR
02:38 17.2 °F 12.9 °F 1024.6 in Calm     76 % 0.0 in 0.0 W/m2 CLR
02:43 17.8 °F 13.5 °F 1024.6 in SSE 3.7 mph   76 % 0.0 in 0.0 W/m2 CLR
02:48 17.8 °F 13.5 °F 1024.6 in South 5.6 mph 5.6 mph 76 % 0.0 in 0.0 W/m2 CLR
02:53 17.8 °F 13.5 °F 1024.6 in South 3.7 mph 3.7 mph 76 % 0.0 in 0.0 W/m2 CLR
02:58 17.8 °F 13.5 °F 1024.6 in Calm   1.3 mph 76 % 0.0 in 0.0 W/m2 CLR
03:03 17.8 °F 13.5 °F 1024.6 in South 13.0 mph 13.0 mph 76 % 0.0 in 0.0 W/m2 CLR
03:08 17.2 °F 12.7 °F 1024.3 in South 7.4 mph 7.4 mph 75 % 0.0 in 0.0 W/m2 CLR
03:13 17.8 °F 13.3 °F 1024.6 in SSW 11.1 mph 11.1 mph 75 % 0.0 in 0.0 W/m2 CLR
03:18 17.8 °F 13.3 °F 1024.6 in South 13.0 mph 13.0 mph 75 % 0.0 in 0.0 W/m2 CLR
03:23 17.8 °F 13.3 °F 1024.3 in SSW 13.0 mph 13.0 mph 75 % 0.0 in 0.0 W/m2 CLR
03:33 18.3 °F 13.8 °F 1024.3 in South 13.0 mph 13.0 mph 75 % 0.0 in 0.0 W/m2 CLR
03:38 18.3 °F 13.8 °F 1024.3 in SSW 16.7 mph 16.7 mph 75 % 0.0 in 0.0 W/m2 CLR
03:43 18.3 °F 13.8 °F 1024.3 in SSW 11.1 mph 11.1 mph 75 % 0.0 in 0.0 W/m2 CLR
03:48 18.3 °F 13.8 °F 1024.6 in SSW 9.7 mph 9.7 mph 75 % 0.0 in 0.0 W/m2 CLR
03:53 17.8 °F 13.3 °F 1024.3 in SSW 9.3 mph 9.3 mph 75 % 0.0 in 0.0 W/m2 CLR
03:59 17.8 °F 13.5 °F 1024.3 in SSW 13.0 mph 13.0 mph 76 % 0.0 in 0.0 W/m2 CLR
04:04 17.8 °F 13.5 °F 1024.6 in SSW 11.1 mph 11.1 mph 76 % 0.0 in 0.0 W/m2 CLR
04:09 17.8 °F 13.5 °F 1024.6 in SSW 11.1 mph 11.1 mph 76 % 0.0 in 0.0 W/m2 CLR
04:14 17.8 °F 13.5 °F 1024.3 in SSW 3.7 mph 3.7 mph 76 % 0.0 in 0.0 W/m2 CLR
04:19 17.8 °F 13.5 °F 1024.3 in SSW 11.1 mph 11.1 mph 76 % 0.0 in 0.0 W/m2 CLR
04:24 17.8 °F 13.5 °F 1024.6 in SSW 12.9 mph 12.9 mph 76 % 0.0 in 0.0 W/m2 CLR
04:29 17.8 °F 13.5 °F 1024.3 in SSW 9.3 mph 9.3 mph 76 % 0.0 in 0.0 W/m2 CLR
04:34 17.8 °F 13.5 °F 1024.3 in SSW 11.1 mph 11.1 mph 76 % 0.0 in 0.0 W/m2 CLR
04:39 17.8 °F 13.7 °F 1024.3 in SSW 5.6 mph 5.6 mph 77 % 0.0 in 0.0 W/m2 CLR
04:44 17.8 °F 13.7 °F 1024.6 in Calm     77 % 0.0 in 0.0 W/m2 CLR
04:49 17.8 °F 13.7 °F 1024.6 in SSW 11.1 mph 11.1 mph 77 % 0.0 in 0.0 W/m2 CLR
04:54 17.8 °F 13.7 °F 1024.6 in SSW 5.6 mph 5.6 mph 77 % 0.0 in 0.0 W/m2 CLR
04:59 17.8 °F 13.7 °F 1024.6 in SSW 13.0 mph 13.0 mph 77 % 0.0 in 0.0 W/m2 CLR
05:04 17.8 °F 13.7 °F 1024.6 in SSW 14.8 mph 14.8 mph 77 % 0.0 in 0.0 W/m2 CLR
05:09 17.8 °F 13.7 °F 1024.6 in South 16.7 mph 16.7 mph 77 % 0.0 in 0.0 W/m2 CLR
05:14 17.8 °F 13.7 °F 1024.3 in SSW 14.8 mph 14.8 mph 77 % 0.0 in 0.0 W/m2 CLR
05:19 17.8 °F 13.7 °F 1024.3 in SSW 9.7 mph 9.7 mph 77 % 0.0 in 0.0 W/m2 CLR
05:23 17.8 °F 13.7 °F 1024.3 in South 11.1 mph 11.1 mph 77 % 0.0 in 0.0 W/m2 CLR
05:24 17.8 °F 13.7 °F 1024.6 in SSW 14.8 mph 14.8 mph 77 % 0.0 in 0.0 W/m2 CLR
05:29 17.8 °F 13.7 °F 1024.6 in SSW 14.8 mph 14.8 mph 77 % 0.0 in 0.0 W/m2 CLR
05:32 17.8 °F 13.5 °F 1024.6 in SSW 16.7 mph 16.7 mph 76 % 0.0 in 0.0 W/m2 CLR
05:37 18.3 °F 14.0 °F 1024.6 in SSW 18.5 mph 18.5 mph 76 % 0.0 in 0.0 W/m2 CLR
05:42 18.3 °F 14.0 °F 1024.6 in South 11.1 mph 11.1 mph 76 % 0.0 in 0.0 W/m2 CLR
05:47 17.8 °F 13.5 °F 1024.6 in South 11.1 mph 11.1 mph 76 % 0.0 in 0.0 W/m2 CLR
05:52 17.8 °F 13.5 °F 1024.6 in SSW 11.1 mph 11.1 mph 76 % 0.0 in 0.0 W/m2 CLR
05:57 17.8 °F 13.5 °F 1024.6 in SSW 16.7 mph 16.7 mph 76 % 0.0 in 0.0 W/m2 CLR
06:02 18.3 °F 14.0 °F 1024.6 in SSW 16.7 mph 16.7 mph 76 % 0.0 in 0.0 W/m2 CLR
06:07 18.3 °F 14.0 °F 1024.6 in SSW 9.3 mph 9.3 mph 76 % 0.0 in 0.0 W/m2 CLR
06:12 18.3 °F 14.0 °F 1024.6 in SSW 18.5 mph 18.5 mph 76 % 0.0 in 0.0 W/m2 CLR
06:17 18.3 °F 14.0 °F 1024.6 in SSW 11.1 mph 11.1 mph 76 % 0.0 in 0.0 W/m2 CLR
06:22 18.3 °F 14.0 °F 1024.6 in SSW 13.0 mph 13.0 mph 76 % 0.0 in 0.0 W/m2 CLR
06:27 17.8 °F 13.5 °F 1024.6 in SSW 12.9 mph 12.9 mph 76 % 0.0 in 0.0 W/m2 CLR
06:32 18.3 °F 14.0 °F 1024.6 in SSW 11.3 mph 11.3 mph 76 % 0.0 in 0.0 W/m2 CLR
06:37 18.3 °F 14.0 °F 1024.6 in SSW 9.3 mph   76 % 0.0 in 0.0 W/m2 CLR
06:42 18.3 °F 14.0 °F 1024.6 in SSW 11.1 mph 11.1 mph 76 % 0.0 in 0.0 W/m2 CLR
06:47 18.3 °F 14.0 °F 1024.6 in South 9.3 mph 9.3 mph 76 % 0.0 in 0.0 W/m2 CLR
06:57 18.3 °F 14.0 °F 1024.6 in Calm     76 % 0.0 in 0.0 W/m2 CLR
07:02 18.3 °F 14.0 °F 1024.6 in South 20.4 mph 20.4 mph 76 % 0.0 in 0.0 W/m2 CLR
07:07 18.3 °F 13.8 °F 1024.6 in SSW 14.8 mph 14.8 mph 75 % 0.0 in 0.0 W/m2 CLR
07:12 18.3 °F 13.8 °F 1024.6 in SW 5.6 mph 5.6 mph 75 % 0.0 in 0.0 W/m2 CLR
07:17 18.3 °F 13.8 °F 1024.6 in SSW 11.1 mph 11.1 mph 75 % 0.0 in 0.0 W/m2 CLR
07:22 18.3 °F 13.8 °F 1024.6 in SSW 14.8 mph 14.8 mph 75 % 0.0 in 0.0 W/m2 CLR
07:27 18.3 °F 13.8 °F 1024.6 in SSW 14.8 mph 14.8 mph 75 % 0.0 in 0.0 W/m2 CLR
07:32 18.3 °F 13.8 °F 1024.9 in SSW 11.3 mph 11.3 mph 75 % 0.0 in 0.0 W/m2 CLR
07:37 18.3 °F 13.8 °F 1024.9 in SW 13.0 mph 13.0 mph 75 % 0.0 in 0.0 W/m2 CLR
07:42 18.3 °F 13.8 °F 1024.9 in SSW 11.1 mph 11.1 mph 75 % 0.0 in 0.0 W/m2 CLR
07:47 18.3 °F 13.8 °F 1024.9 in SSW 18.5 mph 18.5 mph 75 % 0.0 in 0.0 W/m2 OVC
07:53 18.3 °F 13.8 °F 1024.9 in SSW 11.1 mph 11.1 mph 75 % 0.0 in 0.0 W/m2 OVC
07:58 18.3 °F 13.8 °F 1024.9 in South 11.3 mph 11.3 mph 75 % 0.0 in 0.0 W/m2 OVC
08:03 18.3 °F 13.8 °F 1024.9 in SSW 13.0 mph 13.0 mph 75 % 0.0 in 0.0 W/m2 OVC
08:08 18.3 °F 13.8 °F 1024.9 in South 16.7 mph 16.7 mph 75 % 0.0 in 0.0 W/m2 OVC
08:13 18.3 °F 13.8 °F 1024.9 in South 14.8 mph 14.8 mph 75 % 0.0 in 5.0 W/m2 OVC
08:18 18.3 °F 13.8 °F 1024.9 in SSW 7.4 mph 7.4 mph 75 % 0.0 in 7.0 W/m2 BKN
08:19 18.3 °F 13.8 °F 1024.9 in South 1.9 mph   75 % 0.0 in 7.0 W/m2 BKN
08:24 18.3 °F 13.8 °F 1024.9 in SSW 13.0 mph 13.0 mph 75 % 0.0 in 9.0 W/m2 BKN
08:29 18.3 °F 13.8 °F 1024.9 in South 11.1 mph 11.1 mph 75 % 0.0 in 16.0 W/m2 BKN
08:34 18.3 °F 13.8 °F 1024.9 in SW 14.8 mph 14.8 mph 75 % 0.0 in 21.0 W/m2 BKN
08:39 18.3 °F 13.8 °F 1024.9 in Calm     75 % 0.0 in 30.0 W/m2 BKN
08:44 18.3 °F 13.8 °F 1024.9 in SSW 9.7 mph 9.7 mph 75 % 0.0 in 40.0 W/m2 BKN
08:49 18.3 °F 13.8 °F 1024.9 in SSW 14.8 mph 14.8 mph 75 % 0.0 in 49.0 W/m2 SCT
08:54 18.3 °F 13.8 °F 1024.9 in SSW 11.3 mph 11.3 mph 75 % 0.0 in 62.0 W/m2 SCT
08:59 18.9 °F 14.3 °F 1024.9 in SSW 11.1 mph 11.1 mph 75 % 0.0 in 88.0 W/m2 FEW
09:04 18.9 °F 14.3 °F 1025.3 in SSW 16.7 mph 16.7 mph 75 % 0.0 in 84.0 W/m2 FEW
09:09 18.9 °F 14.3 °F 1025.3 in SW 19.3 mph 19.3 mph 75 % 0.0 in 109.0 W/m2 CLR
09:14 18.9 °F 14.3 °F 1025.3 in SW 13.0 mph 13.0 mph 75 % 0.0 in 118.0 W/m2 CLR
09:19 18.9 °F 14.3 °F 1025.3 in SW 9.3 mph 9.3 mph 75 % 0.0 in 114.0 W/m2 CLR
09:24 18.9 °F 14.3 °F 1025.3 in SW 16.7 mph 16.7 mph 75 % 0.0 in 134.0 W/m2 CLR
09:29 18.9 °F 14.3 °F 1025.3 in SW 11.1 mph 11.1 mph 75 % 0.0 in 183.0 W/m2 CLR
09:34 19.4 °F 14.9 °F 1025.3 in SW 16.7 mph 16.7 mph 75 % 0.0 in 162.0 W/m2 CLR
09:39 19.4 °F 14.9 °F 1025.3 in WSW 24.1 mph 24.1 mph 75 % 0.0 in 190.0 W/m2 CLR
09:44 19.4 °F 14.9 °F 1025.6 in SW 14.8 mph 14.8 mph 75 % 0.0 in 141.0 W/m2 CLR
09:49 19.4 °F 14.9 °F 1025.6 in SSW 16.7 mph 16.7 mph 75 % 0.0 in 156.0 W/m2 CLR
09:54 19.4 °F 14.9 °F 1025.6 in SW 12.9 mph 12.9 mph 75 % 0.0 in 137.0 W/m2 CLR
09:59 19.4 °F 14.9 °F 1025.6 in SW 20.4 mph 20.4 mph 75 % 0.0 in 118.0 W/m2 CLR
10:04 19.4 °F 14.9 °F 1025.6 in WSW 9.3 mph 9.3 mph 75 % 0.0 in 139.0 W/m2 CLR
10:09 19.4 °F 14.9 °F 1025.6 in SW 7.4 mph 7.4 mph 75 % 0.0 in 200.0 W/m2 CLR
10:14 19.4 °F 14.9 °F 1026.0 in WSW 14.8 mph 14.8 mph 75 % 0.0 in 202.0 W/m2 CLR
10:17 19.4 °F 14.9 °F 1026.0 in SW 14.8 mph 14.8 mph 75 % 0.0 in 220.0 W/m2 CLR
10:22 20.0 °F 15.2 °F 1026.0 in WSW 18.5 mph 18.5 mph 74 % 0.0 in 176.0 W/m2 CLR
10:27 19.4 °F 14.7 °F 1026.0 in SW 18.5 mph 18.5 mph 74 % 0.0 in 195.0 W/m2 CLR
10:32 19.4 °F 14.7 °F 1026.0 in SW 20.4 mph 20.4 mph 74 % 0.0 in 202.0 W/m2 CLR
10:37 20.0 °F 15.2 °F 1026.0 in SSW 7.4 mph 7.4 mph 74 % 0.0 in 399.0 W/m2 CLR
10:42 20.0 °F 15.0 °F 1026.0 in SW 18.5 mph 18.5 mph 73 % 0.0 in 220.0 W/m2 CLR
10:47 20.0 °F 15.0 °F 1026.0 in SW 14.8 mph 14.8 mph 73 % 0.0 in 221.0 W/m2 CLR
10:52 20.0 °F 15.0 °F 1026.0 in SW 14.8 mph 14.8 mph 73 % 0.0 in 225.0 W/m2 CLR
10:57 20.0 °F 15.0 °F 1026.0 in SSW 22.2 mph 22.2 mph 73 % 0.0 in 302.0 W/m2 CLR
11:02 20.6 °F 15.3 °F 1026.0 in WSW 9.7 mph 9.7 mph 72 % 0.0 in 257.0 W/m2 CLR
11:07 20.6 °F 15.3 °F 1026.0 in WSW 14.8 mph 14.8 mph 72 % 0.0 in 148.0 W/m2 CLR
11:12 20.6 °F 15.6 °F 1026.0 in SW 7.4 mph 7.4 mph 73 % 0.0 in 283.0 W/m2 CLR
11:17 20.6 °F 15.3 °F 1026.0 in SSW 3.7 mph 3.7 mph 72 % 0.0 in 239.0 W/m2 CLR
11:22 20.6 °F 15.3 °F 1026.0 in SSW 18.5 mph 18.5 mph 72 % 0.0 in 295.0 W/m2 CLR
11:27 20.6 °F 15.1 °F 1026.0 in SSW 14.8 mph 14.8 mph 71 % 0.0 in 287.0 W/m2 CLR
11:32 20.6 °F 15.1 °F 1026.0 in SSW 14.8 mph 14.8 mph 71 % 0.0 in 190.0 W/m2 CLR
11:37 20.6 °F 15.1 °F 1026.0 in SSW 14.8 mph 14.8 mph 71 % 0.0 in 243.0 W/m2 CLR
11:42 20.6 °F 14.9 °F 1026.0 in South 24.1 mph 24.1 mph 70 % 0.0 in 243.0 W/m2 CLR
11:47 21.1 °F 15.4 °F 1026.0 in South 22.2 mph 22.2 mph 70 % 0.0 in 765.0 W/m2 CLR
11:48 21.1 °F 15.4 °F 1026.0 in South 20.4 mph 20.4 mph 70 % 0.0 in 765.0 W/m2 CLR
11:53 21.7 °F 15.7 °F 1025.6 in SSW 22.5 mph 22.5 mph 69 % 0.0 in 661.0 W/m2 CLR
11:58 21.7 °F 15.5 °F 1025.6 in South 6.4 mph 6.4 mph 68 % 0.0 in 195.0 W/m2 CLR
12:03 21.7 °F 15.5 °F 1025.6 in SSW 9.3 mph 9.3 mph 68 % 0.0 in 661.0 W/m2 CLR
12:08 22.2 °F 15.8 °F 1025.6 in WSW 20.4 mph 20.4 mph 67 % 0.0 in 677.0 W/m2 CLR
12:13 22.8 °F 16.1 °F 1025.6 in South 11.3 mph 11.3 mph 66 % 0.0 in 679.0 W/m2 CLR
12:18 22.8 °F 16.1 °F 1025.3 in SSW 18.5 mph 18.5 mph 66 % 0.0 in 302.0 W/m2 CLR
12:23 22.2 °F 15.6 °F 1025.3 in SSW 7.4 mph 7.4 mph 66 % 0.0 in 686.0 W/m2 CLR
12:28 22.8 °F 16.1 °F 1025.3 in South 14.8 mph 14.8 mph 66 % 0.0 in 682.0 W/m2 CLR
12:33 22.8 °F 16.1 °F 1025.3 in South 14.8 mph 14.8 mph 66 % 0.0 in 599.0 W/m2 CLR
12:38 23.3 °F 16.4 °F 1025.3 in SW 20.9 mph 20.9 mph 65 % 0.0 in 631.0 W/m2 CLR
12:43 23.9 °F 16.4 °F 1025.3 in SW 16.7 mph 16.7 mph 63 % 0.0 in 775.0 W/m2 CLR
12:48 23.3 °F 16.1 °F 1025.3 in Calm     64 % 0.0 in 176.0 W/m2 CLR
12:53 23.3 °F 16.1 °F 1025.3 in South 1.6 mph   64 % 0.0 in 786.0 W/m2 CLR
12:58 23.9 °F 16.4 °F 1025.3 in WSW 13.0 mph 13.0 mph 63 % 0.0 in 777.0 W/m2 CLR
13:03 24.4 °F 16.7 °F 1025.3 in SW 4.8 mph 4.8 mph 62 % 0.0 in 766.0 W/m2 CLR
13:08 24.4 °F 16.2 °F 1024.9 in SSW 16.7 mph 16.7 mph 60 % 0.0 in 729.0 W/m2 CLR
13:13 24.4 °F 16.4 °F 1024.9 in Calm     61 % 0.0 in 816.0 W/m2 CLR
13:14 25.0 °F 17.2 °F 1024.9 in SW 18.5 mph 18.5 mph 62 % 0.0 in 816.0 W/m2 CLR
13:19 25.0 °F 16.7 °F 1024.9 in South 20.4 mph 20.4 mph 60 % 0.0 in 167.0 W/m2 CLR
13:24 23.9 °F 16.2 °F 1025.3 in SW 14.8 mph 14.8 mph 62 % 0.0 in 722.0 W/m2 CLR
13:29 24.4 °F 16.4 °F 1024.9 in Calm     61 % 0.0 in 758.0 W/m2 CLR
13:34 23.9 °F 15.7 °F 1024.9 in SW 18.5 mph 18.5 mph 60 % 0.0 in 258.0 W/m2 CLR
13:39 23.9 °F 15.9 °F 1024.9 in SW 18.5 mph 18.5 mph 61 % 0.0 in 258.0 W/m2 CLR
13:44 23.9 °F 16.2 °F 1024.9 in SSW 13.0 mph 13.0 mph 62 % 0.0 in 352.0 W/m2 CLR
13:49 23.9 °F 15.9 °F 1024.9 in WSW 18.5 mph 18.5 mph 61 % 0.0 in 731.0 W/m2 CLR
13:54 23.9 °F 15.7 °F 1024.9 in WSW 18.5 mph 18.5 mph 60 % 0.0 in 153.0 W/m2 CLR
13:59 23.9 °F 15.4 °F 1024.9 in West 11.1 mph 11.1 mph 59 % 0.0 in 223.0 W/m2 CLR
14:04 23.9 °F 15.4 °F 1024.9 in South 14.8 mph 14.8 mph 59 % 0.0 in 684.0 W/m2 CLR
14:09 24.4 °F 15.9 °F 1024.9 in South 11.3 mph 11.3 mph 59 % 0.0 in 700.0 W/m2 CLR
14:14 25.0 °F 16.2 °F 1024.6 in SW 11.1 mph 11.1 mph 58 % 0.0 in 691.0 W/m2 CLR
14:19 25.0 °F 15.9 °F 1024.6 in SSW 20.4 mph 20.4 mph 57 % 0.0 in 701.0 W/m2 CLR
14:24 25.6 °F 16.4 °F 1024.6 in SSW 11.1 mph 11.1 mph 57 % 0.0 in 773.0 W/m2 CLR
14:29 25.6 °F 16.4 °F 1024.6 in South 16.7 mph 16.7 mph 57 % 0.0 in 766.0 W/m2 CLR
14:34 25.6 °F 16.1 °F 1024.6 in South 22.2 mph 22.2 mph 56 % 0.0 in 737.0 W/m2 CLR
14:39 26.1 °F 16.4 °F 1024.6 in Calm     55 % 0.0 in 717.0 W/m2 CLR
14:44 26.1 °F 16.4 °F 1024.3 in SW 18.5 mph 18.5 mph 55 % 0.0 in 701.0 W/m2 CLR
14:49 26.1 °F 16.4 °F 1024.3 in WSW 17.7 mph 17.7 mph 55 % 0.0 in 740.0 W/m2 CLR
14:54 25.6 °F 15.8 °F 1024.6 in WSW 16.7 mph 16.7 mph 55 % 0.0 in 668.0 W/m2 CLR
14:59 25.6 °F 15.6 °F 1024.3 in West 14.8 mph 14.8 mph 54 % 0.0 in 668.0 W/m2 CLR
15:04 25.6 °F 15.6 °F 1024.6 in Calm     54 % 0.0 in 234.0 W/m2 CLR
15:09 25.6 °F 15.6 °F 1024.3 in WSW 18.5 mph 18.5 mph 54 % 0.0 in 650.0 W/m2 CLR
15:14 25.6 °F 15.6 °F 1024.3 in SSW 11.1 mph 11.1 mph 54 % 0.0 in 167.0 W/m2 CLR
15:19 25.0 °F 15.3 °F 1024.3 in South 9.7 mph 9.7 mph 55 % 0.0 in 768.0 W/m2 CLR
15:24 25.6 °F 15.6 °F 1024.3 in South 14.8 mph 14.8 mph 54 % 0.0 in 737.0 W/m2 CLR
15:29 26.1 °F 15.8 °F 1024.3 in SW 18.5 mph 18.5 mph 53 % 0.0 in 689.0 W/m2 CLR
15:34 26.7 °F 16.0 °F 1023.9 in SW 13.0 mph 13.0 mph 52 % 0.0 in 686.0 W/m2 CLR
15:39 26.7 °F 15.7 °F 1023.9 in South 18.5 mph 18.5 mph 51 % 0.0 in 677.0 W/m2 CLR
15:44 26.7 °F 15.7 °F 1023.9 in SSE 20.4 mph 20.4 mph 51 % 0.0 in 654.0 W/m2 CLR
15:49 26.7 °F 16.0 °F 1023.9 in South 5.6 mph   52 % 0.0 in 679.0 W/m2 CLR
15:54 27.2 °F 16.2 °F 1023.9 in SE 18.5 mph 18.5 mph 51 % 0.0 in 696.0 W/m2 CLR
15:59 27.2 °F 16.2 °F 1023.9 in SW 9.3 mph 9.3 mph 51 % 0.0 in 708.0 W/m2 CLR
16:04 26.7 °F 16.0 °F 1023.9 in WSW 7.4 mph 7.4 mph 52 % 0.0 in 731.0 W/m2 CLR
16:09 26.1 °F 15.2 °F 1023.9 in WNW 13.0 mph 13.0 mph 51 % 0.0 in 169.0 W/m2 CLR
16:14 25.6 °F 14.9 °F 1023.9 in WSW 14.8 mph 14.8 mph 52 % 0.0 in 276.0 W/m2 CLR
16:19 25.6 °F 15.3 °F 1023.6 in SW 5.6 mph 5.6 mph 53 % 0.0 in 592.0 W/m2 CLR
16:24 26.1 °F 15.8 °F 1023.9 in West 13.0 mph 13.0 mph 53 % 0.0 in 538.0 W/m2 CLR
16:29 26.1 °F 15.5 °F 1023.6 in WSW 11.1 mph 11.1 mph 52 % 0.0 in 258.0 W/m2 CLR
16:34 25.6 °F 15.3 °F 1023.6 in West 5.6 mph   53 % 0.0 in 98.0 W/m2 CLR
16:39 25.6 °F 15.3 °F 1023.6 in WSW 5.6 mph   53 % 0.0 in 109.0 W/m2 CLR
16:44 26.1 °F 16.1 °F 1023.6 in Calm     54 % 0.0 in 489.0 W/m2 CLR
16:49 25.6 °F 14.7 °F 1023.6 in SW 5.6 mph   51 % 0.0 in 468.0 W/m2 CLR
16:54 26.1 °F 15.2 °F 1023.6 in Calm     51 % 0.0 in 308.0 W/m2 CLR
16:59 26.1 °F 14.9 °F 1023.2 in SSW 6.4 mph 6.4 mph 50 % 0.0 in 383.0 W/m2 CLR
17:04 26.1 °F 14.9 °F 1023.2 in WSW 16.7 mph 16.7 mph 50 % 0.0 in 174.0 W/m2 CLR
17:09 25.6 °F 14.4 °F 1023.2 in SW 14.8 mph 14.8 mph 50 % 0.0 in 276.0 W/m2 CLR
17:14 26.1 °F 14.9 °F 1023.2 in SSW 7.4 mph 7.4 mph 50 % 0.0 in 352.0 W/m2 CLR
17:19 26.1 °F 15.2 °F 1023.2 in SSW 7.4 mph 7.4 mph 51 % 0.0 in 390.0 W/m2 CLR
17:20 26.1 °F 15.2 °F 1023.2 in SSW 9.3 mph 9.3 mph 51 % 0.0 in 383.0 W/m2 CLR
17:25 26.1 °F 15.2 °F 1023.2 in SSW 12.9 mph 12.9 mph 51 % 0.0 in 360.0 W/m2 CLR
17:30 26.7 °F 15.4 °F 1023.2 in Calm     50 % 0.0 in 352.0 W/m2 CLR
17:35 26.7 °F 15.4 °F 1022.9 in SSW 16.1 mph 16.1 mph 50 % 0.0 in 176.0 W/m2 CLR
17:40 26.7 °F 15.4 °F 1022.9 in SSW 11.1 mph 11.1 mph 50 % 0.0 in 325.0 W/m2 CLR
17:45 26.1 °F 14.6 °F 1023.2 in WSW 7.4 mph 7.4 mph 49 % 0.0 in 250.0 W/m2 CLR
17:50 26.1 °F 14.9 °F 1023.2 in WSW 8.0 mph 8.0 mph 50 % 0.0 in 171.0 W/m2 CLR
17:55 26.1 °F 14.9 °F 1023.2 in WSW 3.7 mph   50 % 0.0 in 151.0 W/m2 CLR
18:00 25.6 °F 14.7 °F 1023.2 in WSW 5.6 mph 5.6 mph 51 % 0.0 in 81.0 W/m2 CLR
18:05 25.0 °F 14.2 °F 1023.2 in SSW 9.3 mph 9.3 mph 51 % 0.0 in 172.0 W/m2 CLR
18:10 25.0 °F 14.4 °F 1023.2 in SW 7.4 mph 7.4 mph 52 % 0.0 in 167.0 W/m2 CLR
18:15 25.0 °F 14.4 °F 1023.2 in Calm     52 % 0.0 in 153.0 W/m2 CLR
18:20 25.0 °F 14.4 °F 1023.2 in Calm     52 % 0.0 in 127.0 W/m2 CLR
18:25 25.0 °F 14.2 °F 1023.2 in Calm     51 % 0.0 in 134.0 W/m2 CLR
18:30 24.4 °F 13.7 °F 1023.2 in SW 7.4 mph 7.4 mph 51 % 0.0 in 134.0 W/m2 CLR
18:35 24.4 °F 13.7 °F 1023.2 in Calm     51 % 0.0 in 148.0 W/m2 CLR
18:40 24.4 °F 13.7 °F 1023.2 in WSW 5.6 mph   51 % 0.0 in 127.0 W/m2 CLR
18:45 25.0 °F 14.2 °F 1023.2 in Calm     51 % 0.0 in 109.0 W/m2 CLR
18:50 25.0 °F 14.2 °F 1022.9 in SSW 4.8 mph 4.8 mph 51 % 0.0 in 91.0 W/m2 CLR
18:55 24.4 °F 13.7 °F 1022.9 in SW 13.0 mph 13.0 mph 51 % 0.0 in 42.0 W/m2 SCT
19:00 24.4 °F 13.9 °F 1022.9 in SW 9.3 mph 9.3 mph 52 % 0.0 in 53.0 W/m2 SCT
19:05 24.4 °F 14.2 °F 1022.9 in Calm     53 % 0.0 in 46.0 W/m2 SCT
19:10 23.9 °F 13.7 °F 1022.9 in Calm     53 % 0.0 in 37.0 W/m2 BKN
19:15 23.3 °F 13.2 °F 1022.9 in Calm     53 % 0.0 in 26.0 W/m2 BKN
19:20 22.8 °F 12.7 °F 1023.2 in Calm     53 % 0.0 in 19.0 W/m2 BKN
19:25 22.2 °F 12.4 °F 1023.2 in Calm     54 % 0.0 in 14.0 W/m2 BKN
19:30 21.7 °F 11.9 °F 1023.2 in Calm     54 % 0.0 in 11.0 W/m2 BKN
19:35 21.1 °F 11.7 °F 1023.2 in Calm     55 % 0.0 in 7.0 W/m2 BKN
19:40 20.6 °F 11.2 °F 1023.2 in Calm     55 % 0.0 in 5.0 W/m2 OVC
19:45 20.0 °F 10.9 °F 1023.2 in Calm     56 % 0.0 in 0.0 W/m2 OVC
19:50 20.0 °F 10.9 °F 1023.2 in Calm     56 % 0.0 in 0.0 W/m2 CLR
19:55 19.4 °F 10.7 °F 1023.2 in Calm     57 % 0.0 in 0.0 W/m2 CLR
20:00 19.4 °F 10.9 °F 1023.2 in Calm     58 % 0.0 in 0.0 W/m2 CLR
20:05 18.9 °F 10.4 °F 1023.6 in Calm     58 % 0.0 in 0.0 W/m2 CLR
20:10 18.9 °F 10.7 °F 1023.6 in Calm     59 % 0.0 in 0.0 W/m2 CLR
20:15 18.9 °F 10.7 °F 1023.2 in Calm     59 % 0.0 in 0.0 W/m2 CLR
20:20 18.3 °F 10.4 °F 1023.6 in Calm     60 % 0.0 in 0.0 W/m2 CLR
20:25 18.3 °F 10.4 °F 1023.6 in Calm     60 % 0.0 in 0.0 W/m2 CLR
20:30 18.3 °F 10.7 °F 1023.6 in Calm     61 % 0.0 in 0.0 W/m2 CLR
20:35 18.3 °F 10.9 °F 1023.6 in Calm     62 % 0.0 in 0.0 W/m2 CLR
20:40 18.3 °F 10.9 °F 1023.6 in Calm     62 % 0.0 in 0.0 W/m2 CLR
20:46 17.8 °F 10.6 °F 1023.6 in Calm     63 % 0.0 in 0.0 W/m2 CLR
20:51 17.8 °F 10.9 °F 1023.6 in Calm     64 % 0.0 in 0.0 W/m2 CLR
20:56 17.8 °F 11.1 °F 1023.9 in Calm     65 % 0.0 in 0.0 W/m2 CLR
21:01 17.2 °F 10.8 °F 1023.9 in Calm     66 % 0.0 in 0.0 W/m2 CLR
21:06 17.2 °F 10.8 °F 1023.9 in Calm     66 % 0.0 in 0.0 W/m2 CLR
21:11 17.2 °F 11.1 °F 1023.9 in Calm     67 % 0.0 in 0.0 W/m2 CLR
21:16 17.2 °F 11.3 °F 1023.9 in Calm     68 % 0.0 in 0.0 W/m2 CLR
21:21 17.2 °F 11.5 °F 1023.9 in Calm     69 % 0.0 in 0.0 W/m2 CLR
21:26 16.7 °F 10.9 °F 1023.9 in Calm     69 % 0.0 in 0.0 W/m2 CLR
21:31 16.7 °F 10.9 °F 1023.9 in Calm     69 % 0.0 in 0.0 W/m2 CLR
21:36 16.7 °F 11.2 °F 1023.9 in Calm     70 % 0.0 in 0.0 W/m2 CLR
21:41 16.7 °F 11.2 °F 1023.9 in Calm     70 % 0.0 in 0.0 W/m2 CLR
21:46 16.1 °F 10.6 °F 1024.3 in Calm     70 % 0.0 in 0.0 W/m2 CLR
21:51 16.1 °F 10.8 °F 1024.3 in Calm     71 % 0.0 in 0.0 W/m2 CLR
21:56 16.7 °F 11.4 °F 1024.3 in Calm     71 % 0.0 in 0.0 W/m2 CLR
22:01 17.2 °F 11.9 °F 1024.3 in Calm     71 % 0.0 in 0.0 W/m2 CLR
22:06 17.2 °F 11.9 °F 1024.3 in Calm     71 % 0.0 in 0.0 W/m2 CLR
22:11 17.2 °F 11.9 °F 1024.3 in Calm     71 % 0.0 in 0.0 W/m2 CLR
22:16 16.7 °F 11.4 °F 1024.3 in Calm     71 % 0.0 in 0.0 W/m2 CLR
22:21 16.7 °F 11.4 °F 1024.3 in Calm     71 % 0.0 in 0.0 W/m2 CLR
22:26 16.7 °F 11.4 °F 1024.3 in Calm     71 % 0.0 in 0.0 W/m2 CLR
22:31 16.7 °F 11.4 °F 1024.3 in Calm     71 % 0.0 in 0.0 W/m2 CLR
22:36 16.7 °F 11.4 °F 1024.6 in Calm     71 % 0.0 in 0.0 W/m2 CLR
22:41 16.7 °F 11.4 °F 1024.3 in Calm     71 % 0.0 in 0.0 W/m2 CLR
22:46 16.7 °F 11.6 °F 1024.6 in Calm     72 % 0.0 in 0.0 W/m2 CLR
22:51 16.1 °F 11.3 °F 1024.3 in Calm     73 % 0.0 in 0.0 W/m2 CLR
22:56 16.1 °F 11.1 °F 1024.6 in Calm     72 % 0.0 in 0.0 W/m2 CLR
23:01 16.1 °F 11.1 °F 1024.3 in Calm     72 % 0.0 in 0.0 W/m2 CLR
23:06 16.1 °F 11.3 °F 1024.6 in Calm     73 % 0.0 in 0.0 W/m2 CLR
23:11 15.6 °F 10.7 °F 1024.6 in Calm     73 % 0.0 in 0.0 W/m2 CLR
23:16 15.6 °F 10.9 °F 1024.6 in Calm     74 % 0.0 in 0.0 W/m2 CLR
23:21 15.6 °F 10.9 °F 1024.6 in Calm     74 % 0.0 in 0.0 W/m2 CLR
23:26 15.0 °F 10.4 °F 1024.6 in Calm     74 % 0.0 in 0.0 W/m2 CLR
23:31 15.0 °F 10.8 °F 1024.6 in Calm     76 % 0.0 in 0.0 W/m2 CLR
23:36 15.0 °F 10.6 °F 1024.6 in Calm     75 % 0.0 in 0.0 W/m2 CLR
23:41 14.4 °F 10.3 °F 1024.6 in Calm     76 % 0.0 in 0.0 W/m2 CLR
23:46 14.4 °F 10.1 °F 1024.6 in Calm     75 % 0.0 in 0.0 W/m2 CLR
23:51 14.4 °F 10.1 °F 1024.6 in Calm     75 % 0.0 in 0.0 W/m2 CLR
23:56 14.4 °F 10.4 °F 1024.6 in Calm     77 % 0.0 in 0.0 W/m2 CLR
Lo Temps de Massalio
Compliments of Weather Underground - 1.25 mb